Time;durP1;ratioP1;P1;durP2;ratioP2;P2;SDS_P1;SDS_P2;PMS_P1;PMS_P2;Temp;Humidity;BMP_temperature;BMP_pressure;BME280_temperature;BME280_humidity;BME280_pressure;Samples;Min_cycle;Max_cycle;Signal;HPM_P1;HPM_P2
2022/11/20 00:02:18;;;;;;;53.15;23.73;;;;;;;;;;4993065;28;20107;-78
2022/11/20 00:04:45;;;;;;;52.30;22.77;;;;;;;;;;4980485;28;20393;-81
2022/11/20 00:07:11;;;;;;;50.28;23.23;;;;;;;;;;5007108;28;20037;-80
2022/11/20 00:09:37;;;;;;;58.75;24.73;;;;;;;;;;5002740;28;20030;-81
2022/11/20 00:12:03;;;;;;;78.57;29.52;;;;;;;;;;4993232;28;20531;-80
2022/11/20 00:14:29;;;;;;;76.57;31.05;;;;;;;;;;4992938;28;20484;-80
2022/11/20 00:16:55;;;;;;;62.05;26.10;;;;;;;;;;5011044;28;20038;-80
2022/11/20 00:19:21;;;;;;;64.82;25.55;;;;;;;;;;5010599;28;20030;-80
2022/11/20 00:21:47;;;;;;;67.93;27.25;;;;;;;;;;5025412;28;20772;-80
2022/11/20 00:24:13;;;;;;;66.50;25.55;;;;;;;;;;4994271;28;20399;-79
2022/11/20 00:26:39;;;;;;;60.35;26.92;;;;;;;;;;5000031;28;20112;-80
2022/11/20 00:29:05;;;;;;;58.95;25.70;;;;;;;;;;5006746;28;20025;-81
2022/11/20 00:31:33;;;;;;;54.55;24.50;;;;;;;;;;5030931;28;20110;-79
2022/11/20 00:33:59;;;;;;;54.63;23.42;;;;;;;;;;5010546;28;20133;-80
2022/11/20 00:36:26;;;;;;;47.72;21.25;;;;;;;;;;5013833;28;20041;-79
2022/11/20 00:38:53;;;;;;;55.47;25.70;;;;;;;;;;5022676;28;20031;-80
2022/11/20 00:41:19;;;;;;;62.05;27.63;;;;;;;;;;5022521;28;20021;-79
2022/11/20 00:43:45;;;;;;;54.33;25.10;;;;;;;;;;5018982;28;20107;-80
2022/11/20 00:46:13;;;;;;;56.00;25.33;;;;;;;;;;5028599;28;20408;-79
2022/11/20 00:48:39;;;;;;;61.15;24.88;;;;;;;;;;5016337;28;20042;-79
2022/11/20 00:51:05;;;;;;;55.80;24.50;;;;;;;;;;5019012;28;20026;-79
2022/11/20 00:53:32;;;;;;;53.53;23.83;;;;;;;;;;5025901;28;20026;-79
2022/11/20 00:55:59;;;;;;;58.42;25.17;;;;;;;;;;5019873;28;20503;-79
2022/11/20 00:58:28;;;;;;;56.13;24.98;;;;;;;;;;5016137;28;20033;-79
2022/11/20 01:00:59;;;;;;;59.72;24.30;;;;;;;;;;5009410;28;20026;-80
2022/11/20 01:03:25;;;;;;;57.47;24.17;;;;;;;;;;5012161;28;20058;-85
2022/11/20 01:05:51;;;;;;;59.92;24.13;;;;;;;;;;5007527;28;20072;-80
2022/11/20 01:08:17;;;;;;;58.25;24.23;;;;;;;;;;5017385;28;20452;-80
2022/11/20 01:10:43;;;;;;;55.42;25.05;;;;;;;;;;5008994;28;20026;-80
2022/11/20 01:16:14;;;;;;;56.92;24.10;;;;;;;;;;4945803;29;20031;-80
2022/11/20 01:18:41;;;;;;;55.75;25.58;;;;;;;;;;4953860;29;20032;-80
2022/11/20 01:21:08;;;;;;;58.97;25.80;;;;;;;;;;4972234;28;20046;-79
2022/11/20 01:23:35;;;;;;;60.90;26.17;;;;;;;;;;5003049;28;20113;-83
2022/11/20 01:26:02;;;;;;;61.00;25.80;;;;;;;;;;4999246;28;20057;-81
2022/11/20 01:28:29;;;;;;;54.55;23.77;;;;;;;;;;5010195;28;20372;-81
2022/11/20 01:30:55;;;;;;;59.45;25.50;;;;;;;;;;5006353;28;20046;-81
2022/11/20 01:33:21;;;;;;;55.85;24.55;;;;;;;;;;5003998;28;21771;-80
2022/11/20 01:35:47;;;;;;;62.22;25.27;;;;;;;;;;5007185;28;20073;-79
2022/11/20 01:38:13;;;;;;;55.42;24.83;;;;;;;;;;4993601;28;20022;-81
2022/11/20 01:40:39;;;;;;;64.53;24.45;;;;;;;;;;5003290;28;20038;-79
2022/11/20 01:43:22;;;;;;;55.38;24.02;;;;;;;;;;5003541;28;20026;-80
2022/11/20 01:46:03;;;;;;;54.00;23.63;;;;;;;;;;5002471;28;20427;-79
2022/11/20 01:48:47;;;;;;;53.35;23.17;;;;;;;;;;4997025;28;20056;-79
2022/11/20 01:51:17;;;;;;;52.83;22.70;;;;;;;;;;5011165;28;20107;-79
2022/11/20 01:53:44;;;;;;;36.70;17.02;;;;;;;;;;5001916;28;20034;-79
2022/11/20 01:56:12;;;;;;;53.88;23.45;;;;;;;;;;5005038;28;20038;-79
2022/11/20 01:58:40;;;;;;;47.03;22.15;;;;;;;;;;5007927;28;20056;-79
2022/11/20 02:01:06;;;;;;;54.83;22.27;;;;;;;;;;5003825;28;20026;-81
2022/11/20 02:03:32;;;;;;;55.03;23.70;;;;;;;;;;5006379;28;20042;-80
2022/11/20 02:06:12;;;;;;;64.00;26.92;;;;;;;;;;5014286;28;20022;-79
2022/11/20 02:08:38;;;;;;;70.60;30.95;;;;;;;;;;5021607;28;20042;-79
2022/11/20 02:11:04;;;;;;;73.22;30.55;;;;;;;;;;5015812;28;20014;-80
2022/11/20 02:13:45;;;;;;;72.55;28.80;;;;;;;;;;5008268;28;20383;-79
2022/11/20 02:16:16;;;;;;;64.53;27.52;;;;;;;;;;5013267;28;20063;-80
2022/11/20 02:18:43;;;;;;;62.05;26.63;;;;;;;;;;5019380;28;20131;-80
2022/11/20 02:21:25;;;;;;;68.95;27.50;;;;;;;;;;5019666;28;20041;-79
2022/11/20 02:24:01;;;;;;;61.22;26.45;;;;;;;;;;5019844;28;20060;-79
2022/11/20 02:26:28;;;;;;;64.13;26.52;;;;;;;;;;5018851;28;20030;-79
2022/11/20 02:28:55;;;;;;;56.72;26.23;;;;;;;;;;5019751;28;20022;-79
2022/11/20 02:31:21;;;;;;;57.80;25.52;;;;;;;;;;5015843;28;20058;-79
2022/11/20 02:33:47;;;;;;;53.65;23.90;;;;;;;;;;5006078;28;20221;-79
2022/11/20 02:36:15;;;;;;;57.25;25.05;;;;;;;;;;5030480;28;20526;-80
2022/11/20 02:38:42;;;;;;;58.22;25.50;;;;;;;;;;5006147;28;20421;-80
2022/11/20 02:41:08;;;;;;;56.40;24.27;;;;;;;;;;5008604;28;20049;-79
2022/11/20 02:43:34;;;;;;;53.65;24.65;;;;;;;;;;5007966;28;20049;-80
2022/11/20 02:46:00;;;;;;;55.55;24.15;;;;;;;;;;5009830;28;20160;-79
2022/11/20 02:48:26;;;;;;;56.78;24.75;;;;;;;;;;5004566;28;20109;-79
2022/11/20 02:50:52;;;;;;;57.80;25.77;;;;;;;;;;5004359;28;20026;-79
2022/11/20 02:53:18;;;;;;;52.55;24.00;;;;;;;;;;5002362;28;20027;-80
2022/11/20 02:55:44;;;;;;;52.72;23.38;;;;;;;;;;5005737;28;20065;-79
2022/11/20 02:58:10;;;;;;;50.08;23.63;;;;;;;;;;5017676;28;20113;-80
2022/11/20 03:00:36;;;;;;;53.50;23.70;;;;;;;;;;5006761;28;20108;-79
2022/11/20 03:03:02;;;;;;;52.20;22.00;;;;;;;;;;5010716;28;20054;-80
2022/11/20 03:05:28;;;;;;;57.38;23.90;;;;;;;;;;4995931;28;20469;-79
2022/11/20 03:07:55;;;;;;;50.42;23.35;;;;;;;;;;5006095;28;20064;-80
2022/11/20 03:10:21;;;;;;;52.55;24.08;;;;;;;;;;5006624;28;20031;-81
2022/11/20 03:12:47;;;;;;;53.88;25.02;;;;;;;;;;5005298;28;20032;-81
2022/11/20 03:15:12;;;;;;;45.70;22.42;;;;;;;;;;5021580;28;20066;-81
2022/11/20 03:17:39;;;;;;;55.67;23.80;;;;;;;;;;5001501;28;20037;-81
2022/11/20 03:20:05;;;;;;;54.38;23.60;;;;;;;;;;4994580;28;20039;-81
2022/11/20 03:22:31;;;;;;;49.03;21.85;;;;;;;;;;5000617;28;20032;-80
2022/11/20 03:24:57;;;;;;;49.60;22.92;;;;;;;;;;5002977;28;20029;-80
2022/11/20 03:27:23;;;;;;;51.25;23.50;;;;;;;;;;5004530;28;20038;-81
2022/11/20 03:29:49;;;;;;;50.45;23.05;;;;;;;;;;4996576;28;20041;-80
2022/11/20 03:32:15;;;;;;;52.33;23.83;;;;;;;;;;5007619;28;20086;-80
2022/11/20 03:34:41;;;;;;;49.35;23.05;;;;;;;;;;4998975;28;20082;-79
2022/11/20 03:37:07;;;;;;;58.40;24.38;;;;;;;;;;4997198;28;20048;-80
2022/11/20 03:39:33;;;;;;;61.88;26.15;;;;;;;;;;5012035;28;20034;-84
2022/11/20 03:41:59;;;;;;;60.90;26.42;;;;;;;;;;5002660;28;20080;-79
2022/11/20 03:44:25;;;;;;;53.75;24.13;;;;;;;;;;5010920;28;20010;-80
2022/11/20 03:46:51;;;;;;;57.38;25.38;;;;;;;;;;5009307;28;20027;-80
2022/11/20 03:49:17;;;;;;;58.47;24.90;;;;;;;;;;5014239;28;20034;-78
2022/11/20 03:51:44;;;;;;;56.40;25.70;;;;;;;;;;5024275;28;20153;-79
2022/11/20 03:54:10;;;;;;;56.92;25.00;;;;;;;;;;5011454;28;20022;-79
2022/11/20 03:56:37;;;;;;;55.70;25.30;;;;;;;;;;5032510;28;20078;-79
2022/11/20 03:59:03;;;;;;;57.50;24.83;;;;;;;;;;5021122;28;20042;-80
2022/11/20 04:01:32;;;;;;;50.55;22.17;;;;;;;;;;5015605;28;20037;-79
2022/11/20 04:03:58;;;;;;;56.00;25.52;;;;;;;;;;5019426;28;20118;-80
2022/11/20 04:06:25;;;;;;;55.92;25.00;;;;;;;;;;5020269;28;20022;-79
2022/11/20 04:08:51;;;;;;;61.97;26.05;;;;;;;;;;5015188;28;20132;-80
2022/11/20 04:11:21;;;;;;;58.40;25.83;;;;;;;;;;5006249;28;20464;-79
2022/11/20 04:13:51;;;;;;;51.85;22.58;;;;;;;;;;5016403;28;20034;-80
2022/11/20 04:16:18;;;;;;;51.72;24.02;;;;;;;;;;5018493;28;20037;-79
2022/11/20 04:18:44;;;;;;;59.17;24.98;;;;;;;;;;5014423;28;20161;-79
2022/11/20 04:21:10;;;;;;;54.30;24.63;;;;;;;;;;4999124;28;20109;-79
2022/11/20 04:23:36;;;;;;;63.60;26.55;;;;;;;;;;4998326;28;20022;-79
2022/11/20 04:26:04;;;;;;;60.08;25.63;;;;;;;;;;5005710;28;20030;-79
2022/11/20 04:28:30;;;;;;;56.67;24.95;;;;;;;;;;5000727;28;20026;-79
2022/11/20 04:31:01;;;;;;;58.88;26.77;;;;;;;;;;5001664;28;20034;-79
2022/11/20 04:33:27;;;;;;;61.05;24.80;;;;;;;;;;5011833;28;20057;-79
2022/11/20 04:35:53;;;;;;;54.28;22.95;;;;;;;;;;5013550;28;20042;-79
2022/11/20 04:38:19;;;;;;;46.05;21.55;;;;;;;;;;5012226;28;20034;-79
2022/11/20 04:40:45;;;;;;;49.50;22.48;;;;;;;;;;4997891;28;20492;-79
2022/11/20 04:43:11;;;;;;;49.00;21.65;;;;;;;;;;5012929;28;20034;-78
2022/11/20 04:45:37;;;;;;;49.85;22.02;;;;;;;;;;5021296;28;20117;-79
2022/11/20 04:48:03;;;;;;;53.47;23.20;;;;;;;;;;5018161;28;20053;-79
2022/11/20 04:50:29;;;;;;;51.47;22.15;;;;;;;;;;5002925;28;20083;-80
2022/11/20 04:52:55;;;;;;;56.30;24.00;;;;;;;;;;5000063;28;20081;-79
2022/11/20 04:55:21;;;;;;;53.08;23.63;;;;;;;;;;5012896;28;20377;-81
2022/11/20 04:57:51;;;;;;;52.05;22.30;;;;;;;;;;5005779;28;20045;-81
2022/11/20 05:00:18;;;;;;;57.60;23.63;;;;;;;;;;5007683;28;20023;-81
2022/11/20 05:02:44;;;;;;;58.88;25.17;;;;;;;;;;5019352;28;20503;-81
2022/11/20 05:05:10;;;;;;;59.58;25.45;;;;;;;;;;5001903;28;20033;-80
2022/11/20 05:07:36;;;;;;;58.35;24.00;;;;;;;;;;4994559;28;20057;-81
2022/11/20 05:10:02;;;;;;;56.08;26.17;;;;;;;;;;5010140;28;20061;-83
2022/11/20 05:12:28;;;;;;;59.17;27.15;;;;;;;;;;4999233;28;20555;-81
2022/11/20 05:14:54;;;;;;;61.85;26.80;;;;;;;;;;5005710;28;20034;-81
2022/11/20 05:17:20;;;;;;;61.40;26.77;;;;;;;;;;4995372;28;20037;-81
2022/11/20 05:19:46;;;;;;;68.03;28.13;;;;;;;;;;5016678;28;20518;-81
2022/11/20 05:22:12;;;;;;;57.67;26.33;;;;;;;;;;5003480;28;20022;-79
2022/11/20 05:24:38;;;;;;;61.78;27.60;;;;;;;;;;5009325;28;20038;-80
2022/11/20 05:27:04;;;;;;;62.97;27.60;;;;;;;;;;4999163;28;20037;-79
2022/11/20 05:29:30;;;;;;;58.88;26.52;;;;;;;;;;5005068;28;20028;-79
2022/11/20 05:31:56;;;;;;;57.97;25.48;;;;;;;;;;5012034;28;20113;-79
2022/11/20 05:34:22;;;;;;;66.60;28.30;;;;;;;;;;5010395;28;20033;-79
2022/11/20 05:36:48;;;;;;;57.45;25.27;;;;;;;;;;5015722;28;20046;-79
2022/11/20 05:39:14;;;;;;;57.60;25.45;;;;;;;;;;5007297;28;20022;-80
2022/11/20 05:41:40;;;;;;;58.05;25.58;;;;;;;;;;5029951;28;20085;-79
2022/11/20 05:44:06;;;;;;;59.17;25.98;;;;;;;;;;5011755;28;20098;-79
2022/11/20 05:46:32;;;;;;;56.67;25.10;;;;;;;;;;5006030;28;20034;-82
2022/11/20 05:48:59;;;;;;;61.03;25.73;;;;;;;;;;5010840;28;20038;-79
2022/11/20 05:51:25;;;;;;;61.58;25.30;;;;;;;;;;5029070;28;20030;-78
2022/11/20 05:53:51;;;;;;;53.75;25.30;;;;;;;;;;5013478;28;20088;-79
2022/11/20 05:56:18;;;;;;;59.42;24.95;;;;;;;;;;5033115;28;20058;-79
2022/11/20 05:58:45;;;;;;;54.38;24.55;;;;;;;;;;5021190;28;20031;-79
2022/11/20 06:01:17;;;;;;;55.00;24.88;;;;;;;;;;5021784;28;20030;-80
2022/11/20 06:03:45;;;;;;;51.90;24.08;;;;;;;;;;5011943;28;20015;-80
2022/11/20 06:06:11;;;;;;;59.22;25.17;;;;;;;;;;5020420;28;20026;-80
2022/11/20 06:08:37;;;;;;;65.13;26.73;;;;;;;;;;5013478;28;20038;-80
2022/11/20 06:11:08;;;;;;;58.97;25.98;;;;;;;;;;5019650;28;20037;-79
2022/11/20 06:13:34;;;;;;;62.22;27.40;;;;;;;;;;5009044;28;20058;-80
2022/11/20 06:16:00;;;;;;;62.03;26.92;;;;;;;;;;5005163;28;20022;-80
2022/11/20 06:18:28;;;;;;;61.33;25.48;;;;;;;;;;5016682;28;20038;-80
2022/11/20 06:21:04;;;;;;;57.35;25.90;;;;;;;;;;5009629;28;20496;-78
2022/11/20 06:23:31;;;;;;;59.10;26.02;;;;;;;;;;5007315;28;20133;-79
2022/11/20 06:25:57;;;;;;;59.10;26.02;;;;;;;;;;5009462;28;20038;-80
2022/11/20 06:28:23;;;;;;;58.72;26.83;;;;;;;;;;5010348;28;20291;-80
2022/11/20 06:31:08;;;;;;;58.25;27.15;;;;;;;;;;5013206;28;20524;-78
2022/11/20 06:33:34;;;;;;;56.45;26.42;;;;;;;;;;5006301;28;20051;-81
2022/11/20 06:36:01;;;;;;;61.72;28.13;;;;;;;;;;5002213;28;20054;-79
2022/11/20 06:38:28;;;;;;;59.88;27.10;;;;;;;;;;5005891;28;20111;-80
2022/11/20 06:40:54;;;;;;;68.35;28.30;;;;;;;;;;5007954;28;21394;-79
2022/11/20 06:43:20;;;;;;;58.88;26.67;;;;;;;;;;5000313;28;20053;-81
2022/11/20 06:45:46;;;;;;;66.57;29.67;;;;;;;;;;4995822;28;20061;-80
2022/11/20 06:48:12;;;;;;;73.07;33.00;;;;;;;;;;4994800;28;20035;-81
2022/11/20 06:50:38;;;;;;;74.80;31.80;;;;;;;;;;5007451;28;20039;-81
2022/11/20 06:53:05;;;;;;;67.60;28.88;;;;;;;;;;5000377;28;20034;-80
2022/11/20 06:55:32;;;;;;;63.33;27.25;;;;;;;;;;4997359;28;20054;-81
2022/11/20 06:57:58;;;;;;;59.05;26.70;;;;;;;;;;4998050;28;20101;-81
2022/11/20 07:00:24;;;;;;;56.17;25.73;;;;;;;;;;5003211;28;20026;-81
2022/11/20 07:02:50;;;;;;;58.53;28.00;;;;;;;;;;4993782;28;20049;-80
2022/11/20 07:05:16;;;;;;;60.30;27.65;;;;;;;;;;5001059;28;20109;-80
2022/11/20 07:07:42;;;;;;;57.38;27.00;;;;;;;;;;4992640;28;20133;-80
2022/11/20 07:10:09;;;;;;;57.28;26.05;;;;;;;;;;5014646;28;20173;-80
2022/11/20 07:12:36;;;;;;;59.05;27.08;;;;;;;;;;5001061;28;20034;-80
2022/11/20 07:15:02;;;;;;;58.72;26.92;;;;;;;;;;5004084;28;20157;-82
2022/11/20 07:17:28;;;;;;;57.80;27.00;;;;;;;;;;5002211;28;20112;-78
2022/11/20 07:19:54;;;;;;;60.80;26.85;;;;;;;;;;4996941;28;20057;-77
2022/11/20 07:22:21;;;;;;;60.50;26.95;;;;;;;;;;4995322;28;20033;-79
2022/11/20 07:24:48;;;;;;;61.20;29.20;;;;;;;;;;5009198;28;20037;-79
2022/11/20 07:27:14;;;;;;;60.70;28.85;;;;;;;;;;5009191;28;20029;-79
2022/11/20 07:29:40;;;;;;;67.75;29.67;;;;;;;;;;5002025;28;20041;-81
2022/11/20 07:32:06;;;;;;;68.50;31.27;;;;;;;;;;4995731;28;20044;-79
2022/11/20 07:34:32;;;;;;;74.95;32.25;;;;;;;;;;4996594;28;20436;-79
2022/11/20 07:36:58;;;;;;;81.32;38.20;;;;;;;;;;4993775;28;20487;-79
2022/11/20 07:39:24;;;;;;;105.40;52.40;;;;;;;;;;4999952;28;20048;-78
2022/11/20 07:41:50;;;;;;;76.55;33.75;;;;;;;;;;5001267;28;20037;-79
2022/11/20 07:44:16;;;;;;;77.40;34.50;;;;;;;;;;5001797;28;20045;-81
2022/11/20 07:46:42;;;;;;;84.80;40.17;;;;;;;;;;5002086;28;20125;-80
2022/11/20 07:49:08;;;;;;;103.60;51.17;;;;;;;;;;4996010;28;20119;-78
2022/11/20 07:51:34;;;;;;;113.32;61.85;;;;;;;;;;5023213;28;20424;-78
2022/11/20 07:54:00;;;;;;;95.97;46.60;;;;;;;;;;4999463;28;20034;-78
2022/11/20 07:56:26;;;;;;;72.68;35.08;;;;;;;;;;4995240;28;20146;-78
2022/11/20 07:58:52;;;;;;;68.35;35.05;;;;;;;;;;5005055;28;20041;-79
2022/11/20 08:01:18;;;;;;;80.07;35.10;;;;;;;;;;4992881;28;20128;-78
2022/11/20 08:03:44;;;;;;;74.15;36.35;;;;;;;;;;5001674;28;20109;-79
2022/11/20 08:06:10;;;;;;;74.53;35.85;;;;;;;;;;5015311;28;20199;-79
2022/11/20 08:08:39;;;;;;;86.43;48.25;;;;;;;;;;5008991;28;20487;-80
2022/11/20 08:16:34;;;;;;;66.93;33.78;;;;;;;;;;5005047;28;20062;-80
2022/11/20 08:19:00;;;;;;;67.75;33.67;;;;;;;;;;4997226;28;20146;-79
2022/11/20 08:21:26;;;;;;;71.53;32.70;;;;;;;;;;4999424;28;20026;-81
2022/11/20 08:23:52;;;;;;;73.25;32.80;;;;;;;;;;5005060;28;20184;-80
2022/11/20 08:26:18;;;;;;;71.25;33.67;;;;;;;;;;4984719;28;20197;-79
2022/11/20 08:28:45;;;;;;;72.03;33.58;;;;;;;;;;4996265;28;20674;-79
2022/11/20 08:31:11;;;;;;;68.05;33.55;;;;;;;;;;4999870;28;20026;-78
2022/11/20 08:33:37;;;;;;;61.22;31.83;;;;;;;;;;5005466;28;20033;-78
2022/11/20 08:36:03;;;;;;;61.88;32.60;;;;;;;;;;4996867;28;20694;-79
2022/11/20 08:38:30;;;;;;;63.17;32.47;;;;;;;;;;4996834;28;20026;-78
2022/11/20 08:43:42;;;;;;;58.75;31.10;;;;;;;;;;5011191;28;20049;-77
2022/11/20 08:46:08;;;;;;;61.45;32.72;;;;;;;;;;5003348;28;20029;-77
2022/11/20 08:48:34;;;;;;;61.17;31.45;;;;;;;;;;5004851;28;20040;-78
2022/11/20 08:51:00;;;;;;;59.00;30.45;;;;;;;;;;4997115;28;20033;-78
2022/11/20 08:53:26;;;;;;;58.85;30.55;;;;;;;;;;5004760;28;20038;-78
2022/11/20 08:55:52;;;;;;;57.97;31.40;;;;;;;;;;5000571;28;20104;-79
2022/11/20 08:58:18;;;;;;;58.08;30.50;;;;;;;;;;4998259;28;20565;-78
2022/11/20 09:00:44;;;;;;;64.22;32.67;;;;;;;;;;5025724;28;20096;-78
2022/11/20 09:03:10;;;;;;;81.50;41.53;;;;;;;;;;5000733;28;20037;-79
2022/11/20 09:05:36;;;;;;;70.70;37.40;;;;;;;;;;5016596;28;20115;-78
2022/11/20 09:08:02;;;;;;;68.45;38.67;;;;;;;;;;5011935;28;20049;-79
2022/11/20 09:10:28;;;;;;;60.97;34.80;;;;;;;;;;4996160;28;20054;-79
2022/11/20 09:12:55;;;;;;;59.63;34.45;;;;;;;;;;5008549;28;20084;-77
2022/11/20 09:15:21;;;;;;;70.88;39.63;;;;;;;;;;4998089;28;20069;-77
2022/11/20 09:18:00;;;;;;;61.05;33.78;;;;;;;;;;4996101;28;20033;-77
2022/11/20 09:20:28;;;;;;;63.38;34.00;;;;;;;;;;5001545;28;20098;-78
2022/11/20 09:22:55;;;;;;;63.42;33.50;;;;;;;;;;4999709;28;20040;-78
2022/11/20 09:25:22;;;;;;;58.33;32.83;;;;;;;;;;5006703;28;20526;-78
2022/11/20 09:27:55;;;;;;;58.58;33.72;;;;;;;;;;5014884;28;20065;-78
2022/11/20 09:30:21;;;;;;;64.18;35.85;;;;;;;;;;5003144;28;20026;-79
2022/11/20 09:32:46;;;;;;;63.38;34.20;;;;;;;;;;4996344;28;20089;-78
2022/11/20 09:35:14;;;;;;;60.63;34.50;;;;;;;;;;4994025;28;20038;-79
2022/11/20 09:37:40;;;;;;;61.58;33.50;;;;;;;;;;4997146;28;21265;-78
2022/11/20 09:40:06;;;;;;;54.30;31.27;;;;;;;;;;5007146;28;20033;-77
2022/11/20 09:42:45;;;;;;;57.25;32.55;;;;;;;;;;5008213;28;20022;-80
2022/11/20 09:45:30;;;;;;;54.28;31.10;;;;;;;;;;5006077;28;20027;-78
2022/11/20 09:48:06;;;;;;;50.40;29.73;;;;;;;;;;4998352;28;20065;-78
2022/11/20 09:50:36;;;;;;;63.45;35.17;;;;;;;;;;5014246;28;20388;-79
2022/11/20 09:53:12;;;;;;;60.03;33.83;;;;;;;;;;5005266;28;20034;-78
2022/11/20 09:55:38;;;;;;;56.08;29.77;;;;;;;;;;5003318;28;20053;-78
2022/11/20 09:58:06;;;;;;;51.13;30.90;;;;;;;;;;5008564;28;20030;-78
2022/11/20 10:00:33;;;;;;;49.95;29.73;;;;;;;;;;5005158;28;20026;-79
2022/11/20 10:03:06;;;;;;;52.72;31.73;;;;;;;;;;5004755;28;20116;-79
2022/11/20 10:05:37;;;;;;;51.78;29.55;;;;;;;;;;5001995;28;20038;-81
2022/11/20 10:08:21;;;;;;;55.95;29.98;;;;;;;;;;4998192;28;20122;-78
2022/11/20 10:10:49;;;;;;;51.92;28.85;;;;;;;;;;4997676;28;20034;-79
2022/11/20 10:13:25;;;;;;;54.83;29.35;;;;;;;;;;5003345;28;20038;-80
2022/11/20 10:16:11;;;;;;;48.95;29.13;;;;;;;;;;5000649;28;20033;-81
2022/11/20 10:18:52;;;;;;;47.58;26.17;;;;;;;;;;5009461;28;20068;-81
2022/11/20 10:21:18;;;;;;;48.00;28.33;;;;;;;;;;4999094;28;20138;-78
2022/11/20 10:23:52;;;;;;;48.65;27.40;;;;;;;;;;5002250;28;20053;-78
2022/11/20 10:26:21;;;;;;;50.47;27.17;;;;;;;;;;5000491;28;20040;-79
2022/11/20 10:29:17;;;;;;;50.67;27.35;;;;;;;;;;5004458;28;20026;-80
2022/11/20 10:31:44;;;;;;;47.50;27.65;;;;;;;;;;4982027;28;20077;-81
2022/11/20 10:34:13;;;;;;;54.08;28.88;;;;;;;;;;4999941;28;20030;-80
2022/11/20 10:36:44;;;;;;;52.92;30.38;;;;;;;;;;4996719;28;20052;-79
2022/11/20 10:39:23;;;;;;;49.97;30.08;;;;;;;;;;4997250;28;20033;-80
2022/11/20 10:41:51;;;;;;;45.67;27.63;;;;;;;;;;5002907;28;20033;-80
2022/11/20 10:47:05;;;;;;;60.97;31.55;;;;;;;;;;5004263;28;20064;-80
2022/11/20 10:49:34;;;;;;;49.78;29.00;;;;;;;;;;4997662;28;20053;-79
2022/11/20 10:52:04;;;;;;;44.28;27.52;;;;;;;;;;5003061;28;20041;-79
2022/11/20 10:54:41;;;;;;;48.90;28.08;;;;;;;;;;4998782;28;20027;-80
2022/11/20 10:57:26;;;;;;;49.75;28.40;;;;;;;;;;4998693;28;20048;-78
2022/11/20 10:59:58;;;;;;;58.22;29.42;;;;;;;;;;5000704;28;20054;-79
2022/11/20 11:02:25;;;;;;;47.55;28.90;;;;;;;;;;5005018;28;20048;-80
2022/11/20 11:04:54;;;;;;;46.33;27.20;;;;;;;;;;5001141;28;20436;-80
2022/11/20 11:07:37;;;;;;;50.00;28.00;;;;;;;;;;5007195;28;20053;-79
2022/11/20 11:10:14;;;;;;;49.80;29.45;;;;;;;;;;5000667;28;20037;-80
2022/11/20 11:12:44;;;;;;;58.67;35.28;;;;;;;;;;4997268;28;20026;-79
2022/11/20 11:15:25;;;;;;;61.00;37.45;;;;;;;;;;5002509;28;20030;-80
2022/11/20 11:17:51;;;;;;;52.53;32.65;;;;;;;;;;5004602;28;20026;-80
2022/11/20 11:20:18;;;;;;;55.75;30.65;;;;;;;;;;5001529;28;20515;-79
2022/11/20 11:22:47;;;;;;;55.10;29.63;;;;;;;;;;4998493;28;20101;-80
2022/11/20 11:25:33;;;;;;;54.28;30.92;;;;;;;;;;4994727;28;20023;-79
2022/11/20 11:28:03;;;;;;;56.80;31.73;;;;;;;;;;4996834;28;20415;-77
2022/11/20 11:30:31;;;;;;;55.35;31.88;;;;;;;;;;4998237;28;20037;-77
2022/11/20 11:33:05;;;;;;;59.38;33.05;;;;;;;;;;5003193;28;20061;-76
2022/11/20 11:35:31;;;;;;;59.28;33.60;;;;;;;;;;5004841;28;20116;-76
2022/11/20 11:38:17;;;;;;;65.20;35.10;;;;;;;;;;5001356;28;20022;-78
2022/11/20 11:40:44;;;;;;;62.80;35.28;;;;;;;;;;5001106;28;20030;-77
2022/11/20 11:46:27;;;;;;;68.43;36.92;;;;;;;;;;5001107;28;20088;-81
2022/11/20 11:49:00;;;;;;;67.22;35.40;;;;;;;;;;4997840;28;20030;-79
2022/11/20 11:51:33;;;;;;;65.63;35.13;;;;;;;;;;5015878;28;20478;-78
2022/11/20 11:54:00;;;;;;;64.32;35.55;;;;;;;;;;5000087;28;20089;-79
2022/11/20 11:56:28;;;;;;;68.32;36.22;;;;;;;;;;5006822;28;20500;-79
2022/11/20 11:58:59;;;;;;;66.05;35.97;;;;;;;;;;5002893;28;20080;-78
2022/11/20 12:01:25;;;;;;;;;;;;;;;;;;5002679;28;20114;-78
2022/11/20 12:03:59;;;;;;;75.75;37.08;;;;;;;;;;5002668;28;20012;-80
2022/11/20 12:06:25;;;;;;;75.43;37.35;;;;;;;;;;4999361;28;20041;-79
2022/11/20 12:08:51;;;;;;;82.28;38.90;;;;;;;;;;5022218;28;20134;-78
2022/11/20 12:11:34;;;;;;;79.75;41.17;;;;;;;;;;5008853;28;20448;-79
2022/11/20 12:14:05;;;;;;;81.85;39.83;;;;;;;;;;5003943;28;20034;-80
2022/11/20 12:16:35;;;;;;;76.72;39.13;;;;;;;;;;5016647;28;20088;-79
2022/11/20 12:19:02;;;;;;;85.77;42.03;;;;;;;;;;5012402;28;20034;-79
2022/11/20 12:21:34;;;;;;;82.88;40.17;;;;;;;;;;5008525;28;20030;-80
2022/11/20 12:24:23;;;;;;;86.25;42.20;;;;;;;;;;5007373;28;20029;-76
2022/11/20 12:27:09;;;;;;;84.40;40.40;;;;;;;;;;5008387;28;20088;-78
2022/11/20 12:30:01;;;;;;;84.38;39.92;;;;;;;;;;5010874;28;20100;-81
2022/11/20 12:32:38;;;;;;;93.20;42.03;;;;;;;;;;5021062;28;20044;-80
2022/11/20 12:35:15;;;;;;;85.25;42.33;;;;;;;;;;5008470;28;20037;-79
2022/11/20 12:37:49;;;;;;;86.80;42.55;;;;;;;;;;5012111;28;20030;-80
2022/11/20 12:40:21;;;;;;;84.97;41.40;;;;;;;;;;5005061;28;20022;-80
2022/11/20 12:45:55;;;;;;;93.15;42.17;;;;;;;;;;5010160;28;20121;-80
2022/11/20 12:48:29;;;;;;;97.70;45.35;;;;;;;;;;5007912;28;20129;-80
2022/11/20 12:51:05;;;;;;;95.78;43.35;;;;;;;;;;5011168;28;20027;-81
2022/11/20 12:53:37;;;;;;;97.32;41.92;;;;;;;;;;5013943;28;20018;-82
2022/11/20 12:56:05;;;;;;;97.93;45.08;;;;;;;;;;5007659;28;20057;-81
2022/11/20 12:58:44;;;;;;;106.68;48.28;;;;;;;;;;5010055;28;20731;-81
2022/11/20 13:01:42;;;;;;;112.97;50.28;;;;;;;;;;5009925;28;20380;-82
2022/11/20 13:04:26;;;;;;;101.53;48.40;;;;;;;;;;5005313;28;20033;-80
2022/11/20 13:06:53;;;;;;;98.82;45.40;;;;;;;;;;5013522;28;20041;-78
2022/11/20 13:09:21;;;;;;;102.45;48.55;;;;;;;;;;5009972;28;20534;-86
2022/11/20 13:11:51;;;;;;;97.63;44.63;;;;;;;;;;5016835;28;20571;-80
2022/11/20 13:14:23;;;;;;;103.15;45.38;;;;;;;;;;5016725;28;20030;-82
2022/11/20 13:16:55;;;;;;;106.82;44.33;;;;;;;;;;5015757;28;20056;-84
2022/11/20 13:19:22;;;;;;;103.45;47.78;;;;;;;;;;5014392;28;20120;-82
2022/11/20 13:21:50;;;;;;;98.88;45.75;;;;;;;;;;5011946;28;20070;-81
2022/11/20 13:24:26;;;;;;;105.35;47.88;;;;;;;;;;5009362;28;20026;-81
2022/11/20 13:27:02;;;;;;;108.57;46.25;;;;;;;;;;5012944;28;20034;-80
2022/11/20 13:29:29;;;;;;;109.22;48.00;;;;;;;;;;5007783;28;20033;-79
2022/11/20 13:32:14;;;;;;;112.22;48.10;;;;;;;;;;5007907;28;20040;-79
2022/11/20 13:34:51;;;;;;;116.03;47.88;;;;;;;;;;5010944;28;20034;-78
2022/11/20 13:37:31;;;;;;;118.88;51.03;;;;;;;;;;5015267;28;20584;-79
2022/11/20 13:40:12;;;;;;;84.53;36.88;;;;;;;;;;5016666;28;20085;-80
2022/11/20 13:42:38;;;;;;;;;;;;;;;;;;5010927;28;20112;-79
2022/11/20 13:45:10;;;;;;;116.47;48.80;;;;;;;;;;5000548;28;19949;-77
2022/11/20 13:47:37;;;;;;;119.85;47.60;;;;;;;;;;5009167;28;20124;-79
2022/11/20 13:50:04;;;;;;;124.93;51.00;;;;;;;;;;5007407;28;20033;-80
2022/11/20 13:52:33;;;;;;;117.18;48.53;;;;;;;;;;5011832;28;20034;-76
2022/11/20 13:55:08;;;;;;;124.75;49.38;;;;;;;;;;5005394;28;20137;-79
2022/11/20 13:57:53;;;;;;;135.57;53.38;;;;;;;;;;5004914;28;20106;-82
2022/11/20 14:00:21;;;;;;;122.55;50.08;;;;;;;;;;5012590;28;20034;-79
2022/11/20 14:02:59;;;;;;;118.68;50.92;;;;;;;;;;5006079;28;20037;-80
2022/11/20 14:05:25;;;;;;;130.63;55.05;;;;;;;;;;5005503;28;20451;-79
2022/11/20 14:07:52;;;;;;;121.15;50.33;;;;;;;;;;5007408;28;20105;-80
2022/11/20 14:10:21;;;;;;;122.38;53.28;;;;;;;;;;5010095;28;20050;-79
2022/11/20 14:12:48;;;;;;;135.05;51.92;;;;;;;;;;5011759;28;20033;-78
2022/11/20 14:15:42;;;;;;;127.47;52.95;;;;;;;;;;4987224;28;20046;-76
2022/11/20 14:18:16;;;;;;;139.00;53.63;;;;;;;;;;5002701;28;20483;-76
2022/11/20 14:20:44;;;;;;;127.55;53.45;;;;;;;;;;5017777;28;20037;-76
2022/11/20 14:23:12;;;;;;;138.63;55.25;;;;;;;;;;5009205;28;20023;-77
2022/11/20 14:25:42;;;;;;;144.13;60.88;;;;;;;;;;5009069;28;20037;-76
2022/11/20 14:28:17;;;;;;;139.80;55.78;;;;;;;;;;5007140;28;20035;-75
2022/11/20 14:30:44;;;;;;;143.75;56.00;;;;;;;;;;5005369;28;20030;-73
2022/11/20 14:33:11;;;;;;;128.40;53.53;;;;;;;;;;5012697;28;20395;-77
2022/11/20 14:35:44;;;;;;;150.52;57.95;;;;;;;;;;5013372;28;20042;-76
2022/11/20 14:38:12;;;;;;;127.93;53.72;;;;;;;;;;5011289;28;20029;-77
2022/11/20 14:40:39;;;;;;;142.07;56.70;;;;;;;;;;5007201;28;20045;-75
2022/11/20 14:43:17;;;;;;;157.52;58.72;;;;;;;;;;5005635;28;20506;-74
2022/11/20 14:45:44;;;;;;;160.50;58.13;;;;;;;;;;5018310;28;20127;-75
2022/11/20 14:48:11;;;;;;;166.98;57.50;;;;;;;;;;5016940;28;20018;-76